الصفحة الرئيسية
METAR-TAF:

METAR-TAF

مطار :

Chinandega, نيكاراغوا

دائرة عرض: 12-38N, خط طول: 087-08W, ارتفاع: 53 متر

مراقبة الطقس الحالي

تاريخ ووقت الإصدار 41 دقيقة قبل الساعة 14:00UTC
رياح هادئة
درجة الحرارة 26°درجة مئوية
الرطوبة 89%
ضغط 1012 hPa
الرؤية 10 كم أو أكثر
غيوم متفرقة على ارتفاع 2500 قدم, مزن ركامية عمودية.
غيوم متفرقة على ارتفاع 9000 قدم

METAR: MNCH 171400Z 00000KT 9999 SCT025TCU SCT090 26/24 Q1012 TCU/N/NE/E/SE

زمن: 08:41 (14:41 UTC)


TAF: مفقودة

أرصاد الطقس والتوقعات من أكثر من 4000 مطار (تقارير الطقس للمطار METAR والتنبؤ بالطقس بالمطارTAF).

المحطات المتاحة هي النقط الصفراء والحمراء على الخريطة.

حرك المؤشر فوق النقطة لمعرفة اسم المحطة.

ثم انقر لمعرفة أرصاد وتوقعات الطقس.

لتغيير الخارطة: اضغط على الأزرار الخضراء مع رمز الصليب الأسود للتكبير. على الزر الأخضر مع شرطة للتصغير، أو على الأسهم الخضراء للخرائط المجاورة.


METAR-TAF: